sensor_id;sensor_type;location;lat;lon;timestamp;P1;durP1;ratioP1;P2;durP2;ratioP2
80193;SDS011;69515;42.072;21.504;2023-04-23T00:01:01;11.95;;;7.85;;
80193;SDS011;69515;42.072;21.504;2023-04-23T00:03:29;12.88;;;7.60;;
80193;SDS011;69515;42.072;21.504;2023-04-23T00:06:01;11.80;;;7.07;;
80193;SDS011;69515;42.072;21.504;2023-04-23T00:08:29;12.10;;;8.45;;
80193;SDS011;69515;42.072;21.504;2023-04-23T00:10:56;10.95;;;7.47;;
80193;SDS011;69515;42.072;21.504;2023-04-23T00:13:23;11.60;;;8.00;;
80193;SDS011;69515;42.072;21.504;2023-04-23T00:15:49;12.30;;;7.55;;
80193;SDS011;69515;42.072;21.504;2023-04-23T00:18:16;14.38;;;8.07;;
80193;SDS011;69515;42.072;21.504;2023-04-23T00:20:42;12.85;;;8.02;;
80193;SDS011;69515;42.072;21.504;2023-04-23T00:23:08;11.30;;;7.50;;
80193;SDS011;69515;42.072;21.504;2023-04-23T00:28:01;12.77;;;7.60;;
80193;SDS011;69515;42.072;21.504;2023-04-23T00:30:27;11.68;;;7.80;;
80193;SDS011;69515;42.072;21.504;2023-04-23T00:32:54;13.93;;;8.38;;
80193;SDS011;69515;42.072;21.504;2023-04-23T00:35:20;12.75;;;7.82;;
80193;SDS011;69515;42.072;21.504;2023-04-23T00:37:46;14.25;;;8.48;;
80193;SDS011;69515;42.072;21.504;2023-04-23T00:42:39;12.20;;;7.53;;
80193;SDS011;69515;42.072;21.504;2023-04-23T00:45:05;13.07;;;7.95;;
80193;SDS011;69515;42.072;21.504;2023-04-23T00:47:35;13.38;;;7.45;;
80193;SDS011;69515;42.072;21.504;2023-04-23T00:50:01;11.02;;;7.32;;
80193;SDS011;69515;42.072;21.504;2023-04-23T00:52:27;15.13;;;7.88;;
80193;SDS011;69515;42.072;21.504;2023-04-23T00:54:54;10.55;;;7.28;;
80193;SDS011;69515;42.072;21.504;2023-04-23T00:57:21;12.35;;;8.10;;
80193;SDS011;69515;42.072;21.504;2023-04-23T00:59:48;12.82;;;8.27;;
80193;SDS011;69515;42.072;21.504;2023-04-23T01:02:14;13.93;;;9.35;;
80193;SDS011;69515;42.072;21.504;2023-04-23T01:04:42;12.90;;;9.10;;
80193;SDS011;69515;42.072;21.504;2023-04-23T01:07:09;13.10;;;8.65;;
80193;SDS011;69515;42.072;21.504;2023-04-23T01:09:36;14.80;;;8.13;;
80193;SDS011;69515;42.072;21.504;2023-04-23T01:12:03;13.55;;;7.78;;
80193;SDS011;69515;42.072;21.504;2023-04-23T01:14:31;12.95;;;8.60;;
80193;SDS011;69515;42.072;21.504;2023-04-23T01:16:57;17.33;;;8.82;;
80193;SDS011;69515;42.072;21.504;2023-04-23T01:21:50;13.15;;;7.75;;
80193;SDS011;69515;42.072;21.504;2023-04-23T01:24:17;12.95;;;7.57;;
80193;SDS011;69515;42.072;21.504;2023-04-23T01:26:43;11.63;;;7.32;;
80193;SDS011;69515;42.072;21.504;2023-04-23T01:31:35;10.45;;;7.80;;
80193;SDS011;69515;42.072;21.504;2023-04-23T01:34:02;11.55;;;7.70;;
80193;SDS011;69515;42.072;21.504;2023-04-23T01:36:28;12.75;;;8.60;;
80193;SDS011;69515;42.072;21.504;2023-04-23T01:38:55;12.52;;;7.70;;
80193;SDS011;69515;42.072;21.504;2023-04-23T01:41:21;10.88;;;7.75;;
80193;SDS011;69515;42.072;21.504;2023-04-23T01:43:47;15.02;;;8.50;;
80193;SDS011;69515;42.072;21.504;2023-04-23T01:48:40;13.70;;;8.00;;
80193;SDS011;69515;42.072;21.504;2023-04-23T01:51:06;12.57;;;7.78;;
80193;SDS011;69515;42.072;21.504;2023-04-23T01:53:33;13.23;;;8.63;;
80193;SDS011;69515;42.072;21.504;2023-04-23T01:55:59;13.18;;;8.13;;
80193;SDS011;69515;42.072;21.504;2023-04-23T01:58:26;11.82;;;8.15;;
80193;SDS011;69515;42.072;21.504;2023-04-23T02:03:18;12.63;;;7.88;;
80193;SDS011;69515;42.072;21.504;2023-04-23T02:08:10;12.35;;;8.32;;
80193;SDS011;69515;42.072;21.504;2023-04-23T02:10:37;13.52;;;7.70;;
80193;SDS011;69515;42.072;21.504;2023-04-23T02:15:29;15.98;;;8.30;;
80193;SDS011;69515;42.072;21.504;2023-04-23T02:17:56;11.98;;;7.80;;
80193;SDS011;69515;42.072;21.504;2023-04-23T02:22:49;13.18;;;7.93;;
80193;SDS011;69515;42.072;21.504;2023-04-23T02:25:16;12.00;;;8.02;;
80193;SDS011;69515;42.072;21.504;2023-04-23T02:27:43;12.55;;;7.60;;
80193;SDS011;69515;42.072;21.504;2023-04-23T02:30:09;13.75;;;8.80;;
80193;SDS011;69515;42.072;21.504;2023-04-23T02:32:36;13.80;;;8.48;;
80193;SDS011;69515;42.072;21.504;2023-04-23T02:35:02;12.30;;;7.80;;
80193;SDS011;69515;42.072;21.504;2023-04-23T02:37:33;12.52;;;8.25;;
80193;SDS011;69515;42.072;21.504;2023-04-23T02:39:59;15.15;;;8.60;;
80193;SDS011;69515;42.072;21.504;2023-04-23T02:42:26;13.50;;;8.63;;
80193;SDS011;69515;42.072;21.504;2023-04-23T02:47:18;13.75;;;8.23;;
80193;SDS011;69515;42.072;21.504;2023-04-23T02:52:10;12.65;;;8.60;;
80193;SDS011;69515;42.072;21.504;2023-04-23T02:57:03;14.95;;;8.30;;
80193;SDS011;69515;42.072;21.504;2023-04-23T02:59:29;15.55;;;8.48;;
80193;SDS011;69515;42.072;21.504;2023-04-23T03:01:55;14.13;;;9.30;;
80193;SDS011;69515;42.072;21.504;2023-04-23T03:04:22;13.70;;;8.35;;
80193;SDS011;69515;42.072;21.504;2023-04-23T03:06:48;13.20;;;9.18;;
80193;SDS011;69515;42.072;21.504;2023-04-23T03:11:41;14.63;;;8.60;;
80193;SDS011;69515;42.072;21.504;2023-04-23T03:16:33;13.18;;;8.35;;
80193;SDS011;69515;42.072;21.504;2023-04-23T03:18:59;13.93;;;8.38;;
80193;SDS011;69515;42.072;21.504;2023-04-23T03:23:51;12.32;;;7.90;;
80193;SDS011;69515;42.072;21.504;2023-04-23T03:28:43;14.18;;;7.97;;
80193;SDS011;69515;42.072;21.504;2023-04-23T03:33:36;13.43;;;8.45;;
80193;SDS011;69515;42.072;21.504;2023-04-23T03:38:28;13.52;;;8.45;;
80193;SDS011;69515;42.072;21.504;2023-04-23T03:43:20;12.93;;;8.30;;
80193;SDS011;69515;42.072;21.504;2023-04-23T03:45:46;15.27;;;9.00;;
80193;SDS011;69515;42.072;21.504;2023-04-23T03:48:12;16.67;;;8.57;;
80193;SDS011;69515;42.072;21.504;2023-04-23T03:50:40;14.35;;;8.43;;
80193;SDS011;69515;42.072;21.504;2023-04-23T03:53:06;12.65;;;8.57;;
80193;SDS011;69515;42.072;21.504;2023-04-23T03:55:33;13.23;;;8.57;;
80193;SDS011;69515;42.072;21.504;2023-04-23T04:00:26;16.30;;;8.35;;
80193;SDS011;69515;42.072;21.504;2023-04-23T04:02:52;15.05;;;8.63;;
80193;SDS011;69515;42.072;21.504;2023-04-23T04:05:19;13.50;;;8.50;;
80193;SDS011;69515;42.072;21.504;2023-04-23T04:10:11;12.30;;;8.02;;
80193;SDS011;69515;42.072;21.504;2023-04-23T04:12:37;13.77;;;8.65;;
80193;SDS011;69515;42.072;21.504;2023-04-23T04:15:04;13.88;;;8.82;;
80193;SDS011;69515;42.072;21.504;2023-04-23T04:17:30;12.93;;;7.78;;
80193;SDS011;69515;42.072;21.504;2023-04-23T04:19:56;12.75;;;8.80;;
80193;SDS011;69515;42.072;21.504;2023-04-23T04:22:22;13.82;;;8.02;;
80193;SDS011;69515;42.072;21.504;2023-04-23T04:27:16;14.93;;;9.05;;
80193;SDS011;69515;42.072;21.504;2023-04-23T04:32:08;18.25;;;9.23;;
80193;SDS011;69515;42.072;21.504;2023-04-23T04:34:35;16.13;;;9.30;;
80193;SDS011;69515;42.072;21.504;2023-04-23T04:37:02;16.98;;;9.73;;
80193;SDS011;69515;42.072;21.504;2023-04-23T04:39:28;14.25;;;9.60;;
80193;SDS011;69515;42.072;21.504;2023-04-23T04:44:21;16.38;;;9.30;;
80193;SDS011;69515;42.072;21.504;2023-04-23T04:46:48;16.33;;;10.05;;
80193;SDS011;69515;42.072;21.504;2023-04-23T04:51:42;13.93;;;8.52;;
80193;SDS011;69515;42.072;21.504;2023-04-23T04:56:34;14.93;;;9.70;;
80193;SDS011;69515;42.072;21.504;2023-04-23T05:01:27;15.20;;;9.60;;
80193;SDS011;69515;42.072;21.504;2023-04-23T05:03:56;12.57;;;8.57;;
80193;SDS011;69515;42.072;21.504;2023-04-23T05:06:22;13.18;;;8.43;;
80193;SDS011;69515;42.072;21.504;2023-04-23T05:08:49;12.95;;;8.18;;
80193;SDS011;69515;42.072;21.504;2023-04-23T05:11:16;12.73;;;8.35;;
80193;SDS011;69515;42.072;21.504;2023-04-23T05:13:43;11.20;;;7.25;;
80193;SDS011;69515;42.072;21.504;2023-04-23T05:16:09;10.43;;;6.85;;
80193;SDS011;69515;42.072;21.504;2023-04-23T05:18:39;11.30;;;7.70;;
80193;SDS011;69515;42.072;21.504;2023-04-23T05:21:06;12.85;;;8.60;;
80193;SDS011;69515;42.072;21.504;2023-04-23T05:23:33;11.48;;;8.27;;
80193;SDS011;69515;42.072;21.504;2023-04-23T05:25:59;14.07;;;9.15;;
80193;SDS011;69515;42.072;21.504;2023-04-23T05:28:27;13.35;;;9.77;;
80193;SDS011;69515;42.072;21.504;2023-04-23T05:30:54;14.27;;;9.38;;
80193;SDS011;69515;42.072;21.504;2023-04-23T05:33:20;16.48;;;9.30;;
80193;SDS011;69515;42.072;21.504;2023-04-23T05:35:46;14.45;;;9.70;;
80193;SDS011;69515;42.072;21.504;2023-04-23T05:38:12;14.60;;;9.13;;
80193;SDS011;69515;42.072;21.504;2023-04-23T05:40:38;14.48;;;9.63;;
80193;SDS011;69515;42.072;21.504;2023-04-23T05:43:05;15.43;;;9.05;;
80193;SDS011;69515;42.072;21.504;2023-04-23T05:45:31;12.93;;;8.88;;
80193;SDS011;69515;42.072;21.504;2023-04-23T05:47:57;11.82;;;8.82;;
80193;SDS011;69515;42.072;21.504;2023-04-23T05:50:24;14.00;;;9.80;;
80193;SDS011;69515;42.072;21.504;2023-04-23T05:52:50;13.65;;;8.73;;
80193;SDS011;69515;42.072;21.504;2023-04-23T05:55:16;12.55;;;9.23;;
80193;SDS011;69515;42.072;21.504;2023-04-23T05:57:44;13.68;;;9.10;;
80193;SDS011;69515;42.072;21.504;2023-04-23T06:00:10;14.35;;;9.32;;
80193;SDS011;69515;42.072;21.504;2023-04-23T06:02:37;13.25;;;9.43;;
80193;SDS011;69515;42.072;21.504;2023-04-23T06:05:04;13.00;;;9.20;;
80193;SDS011;69515;42.072;21.504;2023-04-23T06:07:32;13.82;;;8.70;;
80193;SDS011;69515;42.072;21.504;2023-04-23T06:09:58;13.35;;;8.98;;
80193;SDS011;69515;42.072;21.504;2023-04-23T06:12:25;14.50;;;9.00;;
80193;SDS011;69515;42.072;21.504;2023-04-23T06:14:51;13.02;;;8.88;;
80193;SDS011;69515;42.072;21.504;2023-04-23T06:17:18;10.75;;;8.70;;
80193;SDS011;69515;42.072;21.504;2023-04-23T06:19:44;14.68;;;9.57;;
80193;SDS011;69515;42.072;21.504;2023-04-23T06:22:10;14.43;;;9.45;;
80193;SDS011;69515;42.072;21.504;2023-04-23T06:24:36;11.23;;;8.77;;
80193;SDS011;69515;42.072;21.504;2023-04-23T06:27:02;12.45;;;9.65;;
80193;SDS011;69515;42.072;21.504;2023-04-23T06:29:29;13.07;;;9.23;;
80193;SDS011;69515;42.072;21.504;2023-04-23T06:31:55;12.70;;;9.90;;
80193;SDS011;69515;42.072;21.504;2023-04-23T06:34:21;10.20;;;8.57;;
80193;SDS011;69515;42.072;21.504;2023-04-23T06:36:49;10.95;;;8.70;;
80193;SDS011;69515;42.072;21.504;2023-04-23T06:39:16;11.88;;;8.70;;
80193;SDS011;69515;42.072;21.504;2023-04-23T06:41:42;11.27;;;9.10;;
80193;SDS011;69515;42.072;21.504;2023-04-23T06:44:08;12.02;;;9.80;;
80193;SDS011;69515;42.072;21.504;2023-04-23T06:46:35;12.63;;;9.60;;
80193;SDS011;69515;42.072;21.504;2023-04-23T06:49:01;11.55;;;9.43;;
80193;SDS011;69515;42.072;21.504;2023-04-23T06:51:27;12.93;;;10.30;;
80193;SDS011;69515;42.072;21.504;2023-04-23T06:53:53;14.43;;;10.10;;
80193;SDS011;69515;42.072;21.504;2023-04-23T06:56:20;12.18;;;9.63;;
80193;SDS011;69515;42.072;21.504;2023-04-23T06:58:46;13.30;;;9.98;;
80193;SDS011;69515;42.072;21.504;2023-04-23T07:01:12;13.93;;;10.30;;
80193;SDS011;69515;42.072;21.504;2023-04-23T07:03:39;12.20;;;10.20;;
80193;SDS011;69515;42.072;21.504;2023-04-23T07:06:08;13.13;;;10.48;;
80193;SDS011;69515;42.072;21.504;2023-04-23T07:08:34;11.65;;;9.65;;
80193;SDS011;69515;42.072;21.504;2023-04-23T07:11:01;12.40;;;9.23;;
80193;SDS011;69515;42.072;21.504;2023-04-23T07:13:27;11.02;;;9.30;;
80193;SDS011;69515;42.072;21.504;2023-04-23T07:15:53;12.88;;;9.15;;
80193;SDS011;69515;42.072;21.504;2023-04-23T07:18:20;11.45;;;9.07;;
80193;SDS011;69515;42.072;21.504;2023-04-23T07:20:46;13.63;;;9.38;;
80193;SDS011;69515;42.072;21.504;2023-04-23T07:23:12;11.35;;;9.07;;
80193;SDS011;69515;42.072;21.504;2023-04-23T07:25:38;12.35;;;8.80;;
80193;SDS011;69515;42.072;21.504;2023-04-23T07:28:05;12.70;;;9.50;;
80193;SDS011;69515;42.072;21.504;2023-04-23T07:30:31;10.88;;;9.15;;
80193;SDS011;69515;42.072;21.504;2023-04-23T07:32:57;12.43;;;9.57;;
80193;SDS011;69515;42.072;21.504;2023-04-23T07:35:23;12.20;;;9.68;;
80193;SDS011;69515;42.072;21.504;2023-04-23T07:37:51;14.38;;;10.07;;
80193;SDS011;69515;42.072;21.504;2023-04-23T07:40:22;12.48;;;9.63;;
80193;SDS011;69515;42.072;21.504;2023-04-23T07:42:49;12.15;;;9.68;;
80193;SDS011;69515;42.072;21.504;2023-04-23T07:45:16;12.23;;;9.73;;
80193;SDS011;69515;42.072;21.504;2023-04-23T07:47:42;12.07;;;9.20;;
80193;SDS011;69515;42.072;21.504;2023-04-23T07:50:10;12.80;;;10.00;;
80193;SDS011;69515;42.072;21.504;2023-04-23T07:52:36;13.25;;;9.32;;
80193;SDS011;69515;42.072;21.504;2023-04-23T07:55:02;11.95;;;9.45;;
80193;SDS011;69515;42.072;21.504;2023-04-23T07:57:28;14.02;;;9.63;;
80193;SDS011;69515;42.072;21.504;2023-04-23T07:59:54;13.18;;;10.25;;
80193;SDS011;69515;42.072;21.504;2023-04-23T08:02:20;14.15;;;10.38;;
80193;SDS011;69515;42.072;21.504;2023-04-23T08:04:50;14.88;;;10.02;;
80193;SDS011;69515;42.072;21.504;2023-04-23T08:07:16;11.98;;;8.75;;
80193;SDS011;69515;42.072;21.504;2023-04-23T08:09:42;10.70;;;8.45;;
80193;SDS011;69515;42.072;21.504;2023-04-23T08:12:08;12.88;;;8.70;;
80193;SDS011;69515;42.072;21.504;2023-04-23T08:14:35;10.88;;;7.95;;
80193;SDS011;69515;42.072;21.504;2023-04-23T08:17:01;10.63;;;7.78;;
80193;SDS011;69515;42.072;21.504;2023-04-23T08:19:27;12.30;;;8.05;;
80193;SDS011;69515;42.072;21.504;2023-04-23T08:21:56;12.10;;;8.52;;
80193;SDS011;69515;42.072;21.504;2023-04-23T08:24:22;11.27;;;7.65;;
80193;SDS011;69515;42.072;21.504;2023-04-23T08:26:48;11.82;;;8.02;;
80193;SDS011;69515;42.072;21.504;2023-04-23T08:29:14;11.30;;;7.88;;
80193;SDS011;69515;42.072;21.504;2023-04-23T08:31:40;12.38;;;8.73;;
80193;SDS011;69515;42.072;21.504;2023-04-23T08:34:07;11.43;;;9.18;;
80193;SDS011;69515;42.072;21.504;2023-04-23T08:36:33;12.27;;;8.85;;
80193;SDS011;69515;42.072;21.504;2023-04-23T08:38:59;12.93;;;8.23;;
80193;SDS011;69515;42.072;21.504;2023-04-23T08:41:39;12.40;;;8.98;;
80193;SDS011;69515;42.072;21.504;2023-04-23T08:44:11;12.32;;;8.55;;
80193;SDS011;69515;42.072;21.504;2023-04-23T08:46:39;12.43;;;8.80;;
80193;SDS011;69515;42.072;21.504;2023-04-23T08:49:07;10.45;;;8.45;;
80193;SDS011;69515;42.072;21.504;2023-04-23T08:51:33;13.13;;;8.57;;
80193;SDS011;69515;42.072;21.504;2023-04-23T08:54:03;11.88;;;8.40;;
80193;SDS011;69515;42.072;21.504;2023-04-23T08:56:33;12.70;;;8.05;;
80193;SDS011;69515;42.072;21.504;2023-04-23T08:59:01;15.82;;;9.80;;
80193;SDS011;69515;42.072;21.504;2023-04-23T09:01:28;16.33;;;9.02;;
80193;SDS011;69515;42.072;21.504;2023-04-23T09:03:55;15.55;;;10.10;;
80193;SDS011;69515;42.072;21.504;2023-04-23T09:06:21;14.40;;;10.50;;
80193;SDS011;69515;42.072;21.504;2023-04-23T09:08:47;14.00;;;9.20;;
80193;SDS011;69515;42.072;21.504;2023-04-23T09:11:13;11.25;;;8.60;;
80193;SDS011;69515;42.072;21.504;2023-04-23T09:13:40;15.77;;;10.25;;
80193;SDS011;69515;42.072;21.504;2023-04-23T09:16:06;13.35;;;10.05;;
80193;SDS011;69515;42.072;21.504;2023-04-23T09:18:32;13.10;;;9.60;;
80193;SDS011;69515;42.072;21.504;2023-04-23T09:21:00;14.85;;;9.63;;
80193;SDS011;69515;42.072;21.504;2023-04-23T09:23:28;14.88;;;9.30;;
80193;SDS011;69515;42.072;21.504;2023-04-23T09:25:56;12.45;;;10.00;;
80193;SDS011;69515;42.072;21.504;2023-04-23T09:28:32;13.20;;;9.40;;
80193;SDS011;69515;42.072;21.504;2023-04-23T09:30:59;15.07;;;9.55;;
80193;SDS011;69515;42.072;21.504;2023-04-23T09:33:25;13.50;;;8.82;;
80193;SDS011;69515;42.072;21.504;2023-04-23T09:35:53;13.73;;;10.00;;
80193;SDS011;69515;42.072;21.504;2023-04-23T09:38:19;13.30;;;9.57;;
80193;SDS011;69515;42.072;21.504;2023-04-23T09:40:45;12.93;;;8.93;;
80193;SDS011;69515;42.072;21.504;2023-04-23T09:43:11;13.45;;;8.93;;
80193;SDS011;69515;42.072;21.504;2023-04-23T09:45:46;14.50;;;9.73;;
80193;SDS011;69515;42.072;21.504;2023-04-23T09:48:13;16.25;;;9.50;;
80193;SDS011;69515;42.072;21.504;2023-04-23T09:50:39;13.07;;;8.40;;
80193;SDS011;69515;42.072;21.504;2023-04-23T09:53:06;12.10;;;8.55;;
80193;SDS011;69515;42.072;21.504;2023-04-23T09:55:36;12.05;;;8.57;;
80193;SDS011;69515;42.072;21.504;2023-04-23T09:58:09;13.63;;;7.43;;
80193;SDS011;69515;42.072;21.504;2023-04-23T10:00:36;11.93;;;8.00;;
80193;SDS011;69515;42.072;21.504;2023-04-23T10:03:03;13.30;;;8.55;;
80193;SDS011;69515;42.072;21.504;2023-04-23T10:05:30;10.70;;;7.65;;
80193;SDS011;69515;42.072;21.504;2023-04-23T10:07:57;10.05;;;7.53;;
80193;SDS011;69515;42.072;21.504;2023-04-23T10:10:23;10.70;;;7.90;;
80193;SDS011;69515;42.072;21.504;2023-04-23T10:12:50;11.48;;;8.18;;
80193;SDS011;69515;42.072;21.504;2023-04-23T10:15:18;11.15;;;7.93;;
80193;SDS011;69515;42.072;21.504;2023-04-23T10:17:44;10.43;;;7.18;;
80193;SDS011;69515;42.072;21.504;2023-04-23T10:20:13;10.40;;;6.80;;
80193;SDS011;69515;42.072;21.504;2023-04-23T10:22:39;14.27;;;8.43;;
80193;SDS011;69515;42.072;21.504;2023-04-23T10:25:09;11.55;;;7.38;;
80193;SDS011;69515;42.072;21.504;2023-04-23T10:27:40;10.95;;;7.57;;
80193;SDS011;69515;42.072;21.504;2023-04-23T10:30:07;11.75;;;8.05;;
80193;SDS011;69515;42.072;21.504;2023-04-23T10:32:33;10.25;;;6.72;;
80193;SDS011;69515;42.072;21.504;2023-04-23T10:34:59;8.73;;;6.93;;
80193;SDS011;69515;42.072;21.504;2023-04-23T10:37:26;10.80;;;7.47;;
80193;SDS011;69515;42.072;21.504;2023-04-23T10:39:53;12.48;;;7.13;;
80193;SDS011;69515;42.072;21.504;2023-04-23T10:42:20;9.80;;;7.35;;
80193;SDS011;69515;42.072;21.504;2023-04-23T10:44:47;8.27;;;6.60;;
80193;SDS011;69515;42.072;21.504;2023-04-23T10:47:13;12.60;;;6.75;;
80193;SDS011;69515;42.072;21.504;2023-04-23T10:49:40;9.65;;;6.68;;
80193;SDS011;69515;42.072;21.504;2023-04-23T10:54:33;9.60;;;6.55;;
80193;SDS011;69515;42.072;21.504;2023-04-23T10:57:01;12.15;;;6.75;;
80193;SDS011;69515;42.072;21.504;2023-04-23T10:59:31;11.38;;;5.68;;
80193;SDS011;69515;42.072;21.504;2023-04-23T11:01:58;11.88;;;6.93;;
80193;SDS011;69515;42.072;21.504;2023-04-23T11:04:31;10.52;;;6.68;;
80193;SDS011;69515;42.072;21.504;2023-04-23T11:12:00;11.93;;;7.13;;
80193;SDS011;69515;42.072;21.504;2023-04-23T11:17:00;7.50;;;5.30;;
80193;SDS011;69515;42.072;21.504;2023-04-23T11:19:26;10.90;;;6.10;;
80193;SDS011;69515;42.072;21.504;2023-04-23T11:24:21;9.85;;;5.72;;
80193;SDS011;69515;42.072;21.504;2023-04-23T11:26:48;7.82;;;5.85;;
80193;SDS011;69515;42.072;21.504;2023-04-23T11:29:15;10.07;;;6.75;;
80193;SDS011;69515;42.072;21.504;2023-04-23T11:31:42;10.63;;;6.10;;
80193;SDS011;69515;42.072;21.504;2023-04-23T11:34:08;6.55;;;4.97;;
80193;SDS011;69515;42.072;21.504;2023-04-23T11:36:36;7.72;;;4.82;;
80193;SDS011;69515;42.072;21.504;2023-04-23T11:39:02;11.43;;;5.63;;
80193;SDS011;69515;42.072;21.504;2023-04-23T11:41:28;8.00;;;5.18;;
80193;SDS011;69515;42.072;21.504;2023-04-23T11:43:55;6.25;;;4.60;;
80193;SDS011;69515;42.072;21.504;2023-04-23T11:46:22;8.27;;;5.75;;
80193;SDS011;69515;42.072;21.504;2023-04-23T11:48:49;8.02;;;4.93;;
80193;SDS011;69515;42.072;21.504;2023-04-23T11:51:15;10.15;;;6.50;;
80193;SDS011;69515;42.072;21.504;2023-04-23T11:53:47;14.32;;;8.63;;
80193;SDS011;69515;42.072;21.504;2023-04-23T11:56:16;10.63;;;7.97;;
80193;SDS011;69515;42.072;21.504;2023-04-23T11:58:42;7.72;;;4.65;;
80193;SDS011;69515;42.072;21.504;2023-04-23T12:01:11;7.65;;;4.40;;
80193;SDS011;69515;42.072;21.504;2023-04-23T12:03:38;9.85;;;6.22;;
80193;SDS011;69515;42.072;21.504;2023-04-23T12:06:04;8.80;;;4.25;;
80193;SDS011;69515;42.072;21.504;2023-04-23T12:08:32;10.40;;;4.00;;
80193;SDS011;69515;42.072;21.504;2023-04-23T12:11:04;7.13;;;3.53;;
80193;SDS011;69515;42.072;21.504;2023-04-23T12:13:31;5.55;;;3.80;;
80193;SDS011;69515;42.072;21.504;2023-04-23T12:15:58;6.70;;;3.80;;
80193;SDS011;69515;42.072;21.504;2023-04-23T12:18:28;6.45;;;3.63;;
80193;SDS011;69515;42.072;21.504;2023-04-23T12:20:55;5.30;;;3.60;;
80193;SDS011;69515;42.072;21.504;2023-04-23T12:23:25;7.30;;;3.88;;
80193;SDS011;69515;42.072;21.504;2023-04-23T12:25:52;5.75;;;3.85;;
80193;SDS011;69515;42.072;21.504;2023-04-23T12:28:21;9.63;;;3.53;;
80193;SDS011;69515;42.072;21.504;2023-04-23T12:30:48;7.35;;;3.85;;
80193;SDS011;69515;42.072;21.504;2023-04-23T12:33:14;8.05;;;3.67;;
80193;SDS011;69515;42.072;21.504;2023-04-23T12:35:42;7.03;;;3.83;;
80193;SDS011;69515;42.072;21.504;2023-04-23T12:38:24;5.72;;;3.70;;
80193;SDS011;69515;42.072;21.504;2023-04-23T12:40:54;7.43;;;4.00;;
80193;SDS011;69515;42.072;21.504;2023-04-23T12:43:20;5.47;;;3.35;;
80193;SDS011;69515;42.072;21.504;2023-04-23T12:45:47;6.30;;;3.70;;
80193;SDS011;69515;42.072;21.504;2023-04-23T12:48:13;5.75;;;3.40;;
80193;SDS011;69515;42.072;21.504;2023-04-23T12:50:40;7.75;;;3.40;;
80193;SDS011;69515;42.072;21.504;2023-04-23T12:53:06;8.10;;;3.22;;
80193;SDS011;69515;42.072;21.504;2023-04-23T12:55:32;7.00;;;3.38;;
80193;SDS011;69515;42.072;21.504;2023-04-23T12:57:59;7.13;;;3.50;;
80193;SDS011;69515;42.072;21.504;2023-04-23T13:00:25;5.65;;;3.58;;
80193;SDS011;69515;42.072;21.504;2023-04-23T13:02:52;6.95;;;3.88;;
80193;SDS011;69515;42.072;21.504;2023-04-23T13:05:18;4.43;;;3.25;;
80193;SDS011;69515;42.072;21.504;2023-04-23T13:07:44;7.28;;;3.67;;
80193;SDS011;69515;42.072;21.504;2023-04-23T13:10:10;5.43;;;3.00;;
80193;SDS011;69515;42.072;21.504;2023-04-23T13:12:37;5.63;;;3.00;;
80193;SDS011;69515;42.072;21.504;2023-04-23T13:15:05;6.25;;;3.20;;
80193;SDS011;69515;42.072;21.504;2023-04-23T13:17:31;6.47;;;3.63;;
80193;SDS011;69515;42.072;21.504;2023-04-23T13:19:57;6.20;;;3.40;;
80193;SDS011;69515;42.072;21.504;2023-04-23T13:22:24;7.47;;;3.22;;
80193;SDS011;69515;42.072;21.504;2023-04-23T13:24:56;4.97;;;3.15;;
80193;SDS011;69515;42.072;21.504;2023-04-23T13:27:25;6.47;;;3.13;;
80193;SDS011;69515;42.072;21.504;2023-04-23T13:29:52;7.15;;;3.47;;
80193;SDS011;69515;42.072;21.504;2023-04-23T13:32:18;5.05;;;3.20;;
80193;SDS011;69515;42.072;21.504;2023-04-23T13:34:44;6.32;;;3.20;;
80193;SDS011;69515;42.072;21.504;2023-04-23T13:37:10;5.55;;;3.10;;
80193;SDS011;69515;42.072;21.504;2023-04-23T13:39:37;7.13;;;3.30;;
80193;SDS011;69515;42.072;21.504;2023-04-23T13:42:03;7.70;;;3.35;;
80193;SDS011;69515;42.072;21.504;2023-04-23T13:44:30;5.57;;;3.38;;
80193;SDS011;69515;42.072;21.504;2023-04-23T13:46:56;6.25;;;3.38;;
80193;SDS011;69515;42.072;21.504;2023-04-23T13:49:26;6.75;;;3.67;;
80193;SDS011;69515;42.072;21.504;2023-04-23T13:51:53;8.27;;;3.15;;
80193;SDS011;69515;42.072;21.504;2023-04-23T13:54:23;7.65;;;2.97;;
80193;SDS011;69515;42.072;21.504;2023-04-23T13:56:52;7.45;;;3.58;;
80193;SDS011;69515;42.072;21.504;2023-04-23T13:59:19;7.20;;;3.22;;
80193;SDS011;69515;42.072;21.504;2023-04-23T14:01:46;5.20;;;3.13;;
80193;SDS011;69515;42.072;21.504;2023-04-23T14:04:15;6.40;;;3.80;;
80193;SDS011;69515;42.072;21.504;2023-04-23T14:06:41;5.32;;;3.15;;
80193;SDS011;69515;42.072;21.504;2023-04-23T14:09:07;10.70;;;3.22;;
80193;SDS011;69515;42.072;21.504;2023-04-23T14:11:34;5.03;;;2.80;;
80193;SDS011;69515;42.072;21.504;2023-04-23T14:14:00;5.97;;;3.17;;
80193;SDS011;69515;42.072;21.504;2023-04-23T14:16:26;6.78;;;3.80;;
80193;SDS011;69515;42.072;21.504;2023-04-23T14:18:52;6.57;;;3.50;;
80193;SDS011;69515;42.072;21.504;2023-04-23T14:21:19;8.02;;;3.53;;
80193;SDS011;69515;42.072;21.504;2023-04-23T14:23:48;5.25;;;3.25;;
80193;SDS011;69515;42.072;21.504;2023-04-23T14:29:01;5.38;;;2.95;;
80193;SDS011;69515;42.072;21.504;2023-04-23T14:31:28;6.68;;;3.50;;
80193;SDS011;69515;42.072;21.504;2023-04-23T14:33:58;4.60;;;2.80;;
80193;SDS011;69515;42.072;21.504;2023-04-23T14:36:24;6.45;;;3.03;;
80193;SDS011;69515;42.072;21.504;2023-04-23T14:38:50;5.15;;;3.30;;
80193;SDS011;69515;42.072;21.504;2023-04-23T14:41:17;4.70;;;2.88;;
80193;SDS011;69515;42.072;21.504;2023-04-23T14:43:43;7.05;;;2.88;;
80193;SDS011;69515;42.072;21.504;2023-04-23T14:46:09;5.25;;;3.40;;
80193;SDS011;69515;42.072;21.504;2023-04-23T14:48:35;5.55;;;3.35;;
80193;SDS011;69515;42.072;21.504;2023-04-23T14:51:02;8.13;;;2.97;;
80193;SDS011;69515;42.072;21.504;2023-04-23T14:53:28;6.85;;;3.05;;
80193;SDS011;69515;42.072;21.504;2023-04-23T14:55:54;5.40;;;3.25;;
80193;SDS011;69515;42.072;21.504;2023-04-23T14:58:20;6.65;;;3.10;;
80193;SDS011;69515;42.072;21.504;2023-04-23T15:00:47;7.53;;;3.30;;
80193;SDS011;69515;42.072;21.504;2023-04-23T15:03:15;4.93;;;3.10;;
80193;SDS011;69515;42.072;21.504;2023-04-23T15:05:41;5.72;;;2.90;;
80193;SDS011;69515;42.072;21.504;2023-04-23T15:08:07;6.05;;;3.60;;
80193;SDS011;69515;42.072;21.504;2023-04-23T15:10:33;7.35;;;3.45;;
80193;SDS011;69515;42.072;21.504;2023-04-23T15:15:42;5.80;;;3.15;;
80193;SDS011;69515;42.072;21.504;2023-04-23T15:18:09;6.90;;;3.28;;
80193;SDS011;69515;42.072;21.504;2023-04-23T15:20:36;6.32;;;3.30;;
80193;SDS011;69515;42.072;21.504;2023-04-23T15:23:02;5.78;;;3.05;;
80193;SDS011;69515;42.072;21.504;2023-04-23T15:25:28;5.38;;;2.95;;
80193;SDS011;69515;42.072;21.504;2023-04-23T15:27:57;5.72;;;3.15;;
80193;SDS011;69515;42.072;21.504;2023-04-23T15:30:24;6.22;;;3.17;;
80193;SDS011;69515;42.072;21.504;2023-04-23T15:32:51;7.82;;;3.92;;
80193;SDS011;69515;42.072;21.504;2023-04-23T15:35:19;6.30;;;3.25;;
80193;SDS011;69515;42.072;21.504;2023-04-23T15:37:46;5.65;;;3.60;;
80193;SDS011;69515;42.072;21.504;2023-04-23T15:40:12;7.28;;;3.05;;
80193;SDS011;69515;42.072;21.504;2023-04-23T15:42:39;8.90;;;3.30;;
80193;SDS011;69515;42.072;21.504;2023-04-23T15:45:08;7.68;;;3.40;;
80193;SDS011;69515;42.072;21.504;2023-04-23T15:47:35;6.00;;;3.47;;